sensor_id;sensor_type;location;lat;lon;timestamp;P1;durP1;ratioP1;P2;durP2;ratioP2
75496;SDS011;64074;47.540;19.072;2022-10-22T00:01:44;10.90;;;7.07;;
75496;SDS011;64074;47.540;19.072;2022-10-22T00:04:48;14.10;;;7.60;;
75496;SDS011;64074;47.540;19.072;2022-10-22T00:07:56;13.55;;;7.90;;
75496;SDS011;64074;47.540;19.072;2022-10-22T00:11:10;12.68;;;7.90;;
75496;SDS011;64074;47.540;19.072;2022-10-22T00:14:28;12.23;;;7.43;;
75496;SDS011;64074;47.540;19.072;2022-10-22T00:17:50;12.50;;;7.30;;
75496;SDS011;64074;47.540;19.072;2022-10-22T00:21:10;11.97;;;7.10;;
75496;SDS011;64074;47.540;19.072;2022-10-22T00:24:37;13.10;;;7.70;;
75496;SDS011;64074;47.540;19.072;2022-10-22T00:27:55;12.95;;;7.18;;
75496;SDS011;64074;47.540;19.072;2022-10-22T00:31:04;10.50;;;6.97;;
75496;SDS011;64074;47.540;19.072;2022-10-22T00:34:39;15.37;;;6.90;;
75496;SDS011;64074;47.540;19.072;2022-10-22T00:37:49;12.10;;;7.43;;
75496;SDS011;64074;47.540;19.072;2022-10-22T00:41:19;13.88;;;7.30;;
75496;SDS011;64074;47.540;19.072;2022-10-22T00:48:20;12.55;;;7.68;;
75496;SDS011;64074;47.540;19.072;2022-10-22T00:51:33;12.47;;;7.20;;
75496;SDS011;64074;47.540;19.072;2022-10-22T00:54:59;12.40;;;7.10;;
75496;SDS011;64074;47.540;19.072;2022-10-22T00:58:25;11.55;;;7.28;;
75496;SDS011;64074;47.540;19.072;2022-10-22T01:01:41;13.27;;;6.80;;
75496;SDS011;64074;47.540;19.072;2022-10-22T01:04:57;13.45;;;7.65;;
75496;SDS011;64074;47.540;19.072;2022-10-22T01:08:08;12.90;;;7.30;;
75496;SDS011;64074;47.540;19.072;2022-10-22T01:12:07;12.97;;;7.07;;
75496;SDS011;64074;47.540;19.072;2022-10-22T01:15:26;10.20;;;6.75;;
75496;SDS011;64074;47.540;19.072;2022-10-22T01:18:47;10.45;;;6.60;;
75496;SDS011;64074;47.540;19.072;2022-10-22T01:22:04;10.95;;;7.43;;
75496;SDS011;64074;47.540;19.072;2022-10-22T01:25:30;10.57;;;6.73;;
75496;SDS011;64074;47.540;19.072;2022-10-22T01:32:16;9.98;;;6.82;;
75496;SDS011;64074;47.540;19.072;2022-10-22T01:35:34;13.18;;;6.60;;
75496;SDS011;64074;47.540;19.072;2022-10-22T01:38:51;13.63;;;7.13;;
75496;SDS011;64074;47.540;19.072;2022-10-22T01:42:13;12.43;;;6.60;;
75496;SDS011;64074;47.540;19.072;2022-10-22T01:45:35;13.83;;;7.13;;
75496;SDS011;64074;47.540;19.072;2022-10-22T01:49:10;11.80;;;7.13;;
75496;SDS011;64074;47.540;19.072;2022-10-22T02:00:10;13.03;;;7.00;;
75496;SDS011;64074;47.540;19.072;2022-10-22T02:03:25;12.87;;;6.93;;
75496;SDS011;64074;47.540;19.072;2022-10-22T02:06:45;11.15;;;6.90;;
75496;SDS011;64074;47.540;19.072;2022-10-22T02:09:57;12.75;;;6.68;;
75496;SDS011;64074;47.540;19.072;2022-10-22T02:13:26;13.52;;;7.22;;
75496;SDS011;64074;47.540;19.072;2022-10-22T02:16:47;11.43;;;7.00;;
75496;SDS011;64074;47.540;19.072;2022-10-22T02:20:12;12.83;;;7.10;;
75496;SDS011;64074;47.540;19.072;2022-10-22T02:23:36;11.27;;;6.85;;
75496;SDS011;64074;47.540;19.072;2022-10-22T02:27:06;13.30;;;7.18;;
75496;SDS011;64074;47.540;19.072;2022-10-22T02:30:18;11.57;;;6.50;;
75496;SDS011;64074;47.540;19.072;2022-10-22T02:33:30;11.47;;;7.07;;
75496;SDS011;64074;47.540;19.072;2022-10-22T02:36:44;13.73;;;6.77;;
75496;SDS011;64074;47.540;19.072;2022-10-22T02:40:22;20.45;;;7.20;;
75496;SDS011;64074;47.540;19.072;2022-10-22T02:44:06;10.82;;;7.00;;
75496;SDS011;64074;47.540;19.072;2022-10-22T02:47:19;11.38;;;7.38;;
75496;SDS011;64074;47.540;19.072;2022-10-22T02:50:33;12.47;;;6.97;;
75496;SDS011;64074;47.540;19.072;2022-10-22T02:53:53;10.00;;;6.70;;
75496;SDS011;64074;47.540;19.072;2022-10-22T02:57:09;13.75;;;7.22;;
75496;SDS011;64074;47.540;19.072;2022-10-22T03:00:36;12.32;;;7.15;;
75496;SDS011;64074;47.540;19.072;2022-10-22T03:03:59;12.88;;;7.30;;
75496;SDS011;64074;47.540;19.072;2022-10-22T03:07:08;11.60;;;7.07;;
75496;SDS011;64074;47.540;19.072;2022-10-22T03:10:44;13.90;;;7.60;;
75496;SDS011;64074;47.540;19.072;2022-10-22T03:14:15;12.02;;;7.22;;
75496;SDS011;64074;47.540;19.072;2022-10-22T03:17:29;10.60;;;7.20;;
75496;SDS011;64074;47.540;19.072;2022-10-22T03:20:45;11.85;;;7.05;;
75496;SDS011;64074;47.540;19.072;2022-10-22T03:27:50;12.57;;;7.07;;
75496;SDS011;64074;47.540;19.072;2022-10-22T03:31:02;12.38;;;7.28;;
75496;SDS011;64074;47.540;19.072;2022-10-22T03:34:23;12.20;;;7.13;;
75496;SDS011;64074;47.540;19.072;2022-10-22T03:37:44;12.68;;;7.20;;
75496;SDS011;64074;47.540;19.072;2022-10-22T03:41:07;10.73;;;6.90;;
75496;SDS011;64074;47.540;19.072;2022-10-22T03:44:30;11.57;;;7.33;;
75496;SDS011;64074;47.540;19.072;2022-10-22T03:47:52;12.45;;;7.63;;
75496;SDS011;64074;47.540;19.072;2022-10-22T03:51:13;13.02;;;7.10;;
75496;SDS011;64074;47.540;19.072;2022-10-22T03:54:36;11.25;;;7.00;;
75496;SDS011;64074;47.540;19.072;2022-10-22T03:58:01;12.37;;;7.77;;
75496;SDS011;64074;47.540;19.072;2022-10-22T04:01:23;13.63;;;7.77;;
75496;SDS011;64074;47.540;19.072;2022-10-22T04:04:45;14.23;;;7.43;;
75496;SDS011;64074;47.540;19.072;2022-10-22T04:08:06;15.48;;;9.50;;
75496;SDS011;64074;47.540;19.072;2022-10-22T04:11:26;16.10;;;9.10;;
75496;SDS011;64074;47.540;19.072;2022-10-22T04:14:50;15.70;;;9.03;;
75496;SDS011;64074;47.540;19.072;2022-10-22T04:18:14;19.27;;;9.83;;
75496;SDS011;64074;47.540;19.072;2022-10-22T04:21:32;15.82;;;9.48;;
75496;SDS011;64074;47.540;19.072;2022-10-22T04:24:53;21.15;;;10.32;;
75496;SDS011;64074;47.540;19.072;2022-10-22T04:28:13;18.63;;;9.63;;
75496;SDS011;64074;47.540;19.072;2022-10-22T04:31:33;15.43;;;9.73;;
75496;SDS011;64074;47.540;19.072;2022-10-22T04:34:53;16.60;;;10.03;;
75496;SDS011;64074;47.540;19.072;2022-10-22T04:38:13;17.13;;;10.00;;
75496;SDS011;64074;47.540;19.072;2022-10-22T04:41:17;18.65;;;10.00;;
75496;SDS011;64074;47.540;19.072;2022-10-22T04:44:28;18.52;;;10.23;;
75496;SDS011;64074;47.540;19.072;2022-10-22T04:47:38;16.50;;;9.70;;
75496;SDS011;64074;47.540;19.072;2022-10-22T04:51:07;20.30;;;10.27;;
75496;SDS011;64074;47.540;19.072;2022-10-22T04:54:23;22.60;;;9.98;;
75496;SDS011;64074;47.540;19.072;2022-10-22T04:57:50;15.02;;;9.23;;
75496;SDS011;64074;47.540;19.072;2022-10-22T05:01:12;18.23;;;10.45;;
75496;SDS011;64074;47.540;19.072;2022-10-22T05:04:31;19.00;;;9.87;;
75496;SDS011;64074;47.540;19.072;2022-10-22T05:07:54;17.17;;;10.27;;
75496;SDS011;64074;47.540;19.072;2022-10-22T05:11:19;16.50;;;10.07;;
75496;SDS011;64074;47.540;19.072;2022-10-22T05:14:29;19.88;;;10.57;;
75496;SDS011;64074;47.540;19.072;2022-10-22T05:17:34;24.48;;;10.18;;
75496;SDS011;64074;47.540;19.072;2022-10-22T05:20:39;16.60;;;9.27;;
75496;SDS011;64074;47.540;19.072;2022-10-22T05:23:44;17.00;;;9.60;;
75496;SDS011;64074;47.540;19.072;2022-10-22T05:26:54;17.95;;;9.55;;
75496;SDS011;64074;47.540;19.072;2022-10-22T05:29:58;16.00;;;9.20;;
75496;SDS011;64074;47.540;19.072;2022-10-22T05:33:08;17.30;;;9.32;;
75496;SDS011;64074;47.540;19.072;2022-10-22T05:36:36;15.33;;;9.67;;
75496;SDS011;64074;47.540;19.072;2022-10-22T05:39:46;16.23;;;9.87;;
75496;SDS011;64074;47.540;19.072;2022-10-22T05:43:20;17.63;;;10.10;;
75496;SDS011;64074;47.540;19.072;2022-10-22T05:46:42;17.90;;;9.30;;
75496;SDS011;64074;47.540;19.072;2022-10-22T05:50:06;18.42;;;10.20;;
75496;SDS011;64074;47.540;19.072;2022-10-22T05:53:16;19.83;;;10.30;;
75496;SDS011;64074;47.540;19.072;2022-10-22T05:56:20;19.10;;;9.80;;
75496;SDS011;64074;47.540;19.072;2022-10-22T05:59:31;18.50;;;10.18;;
75496;SDS011;64074;47.540;19.072;2022-10-22T06:02:48;17.13;;;10.10;;
75496;SDS011;64074;47.540;19.072;2022-10-22T06:09:37;18.50;;;10.10;;
75496;SDS011;64074;47.540;19.072;2022-10-22T06:12:57;19.40;;;9.83;;
75496;SDS011;64074;47.540;19.072;2022-10-22T06:16:10;16.60;;;9.75;;
75496;SDS011;64074;47.540;19.072;2022-10-22T06:19:40;16.23;;;9.75;;
75496;SDS011;64074;47.540;19.072;2022-10-22T06:22:57;22.00;;;9.95;;
75496;SDS011;64074;47.540;19.072;2022-10-22T06:26:26;23.63;;;10.20;;
75496;SDS011;64074;47.540;19.072;2022-10-22T06:30:01;18.60;;;10.93;;
75496;SDS011;64074;47.540;19.072;2022-10-22T06:33:05;21.30;;;11.70;;
75496;SDS011;64074;47.540;19.072;2022-10-22T06:36:12;18.67;;;11.10;;
75496;SDS011;64074;47.540;19.072;2022-10-22T06:39:21;18.52;;;11.13;;
75496;SDS011;64074;47.540;19.072;2022-10-22T06:42:30;17.37;;;10.80;;
75496;SDS011;64074;47.540;19.072;2022-10-22T06:45:44;20.53;;;11.80;;
75496;SDS011;64074;47.540;19.072;2022-10-22T06:49:12;17.30;;;10.68;;
75496;SDS011;64074;47.540;19.072;2022-10-22T06:52:28;19.08;;;11.15;;
75496;SDS011;64074;47.540;19.072;2022-10-22T06:55:44;14.63;;;9.35;;
75496;SDS011;64074;47.540;19.072;2022-10-22T06:59:04;19.07;;;10.33;;
75496;SDS011;64074;47.540;19.072;2022-10-22T07:02:35;18.20;;;10.27;;
75496;SDS011;64074;47.540;19.072;2022-10-22T07:05:49;16.00;;;9.85;;
75496;SDS011;64074;47.540;19.072;2022-10-22T07:09:09;20.55;;;10.50;;
75496;SDS011;64074;47.540;19.072;2022-10-22T07:12:40;16.20;;;9.48;;
75496;SDS011;64074;47.540;19.072;2022-10-22T07:15:54;32.53;;;17.73;;
75496;SDS011;64074;47.540;19.072;2022-10-22T07:19:07;16.07;;;9.77;;
75496;SDS011;64074;47.540;19.072;2022-10-22T07:22:11;15.93;;;9.63;;
75496;SDS011;64074;47.540;19.072;2022-10-22T07:25:20;16.85;;;9.88;;
75496;SDS011;64074;47.540;19.072;2022-10-22T07:28:41;14.60;;;9.18;;
75496;SDS011;64074;47.540;19.072;2022-10-22T07:32:08;15.63;;;10.07;;
75496;SDS011;64074;47.540;19.072;2022-10-22T07:35:25;18.93;;;10.40;;
75496;SDS011;64074;47.540;19.072;2022-10-22T07:38:29;18.40;;;10.70;;
75496;SDS011;64074;47.540;19.072;2022-10-22T07:41:33;16.45;;;9.95;;
75496;SDS011;64074;47.540;19.072;2022-10-22T07:44:35;16.42;;;10.10;;
75496;SDS011;64074;47.540;19.072;2022-10-22T07:47:39;17.97;;;9.87;;
75496;SDS011;64074;47.540;19.072;2022-10-22T07:50:51;17.17;;;10.70;;
75496;SDS011;64074;47.540;19.072;2022-10-22T07:54:01;20.13;;;10.30;;
75496;SDS011;64074;47.540;19.072;2022-10-22T07:57:23;19.30;;;11.75;;
75496;SDS011;64074;47.540;19.072;2022-10-22T08:00:53;16.60;;;9.82;;
75496;SDS011;64074;47.540;19.072;2022-10-22T08:04:08;15.53;;;10.10;;
75496;SDS011;64074;47.540;19.072;2022-10-22T08:07:18;15.27;;;9.20;;
75496;SDS011;64074;47.540;19.072;2022-10-22T08:10:52;14.13;;;9.25;;
75496;SDS011;64074;47.540;19.072;2022-10-22T08:14:14;14.88;;;9.70;;
75496;SDS011;64074;47.540;19.072;2022-10-22T08:17:24;16.88;;;10.05;;
75496;SDS011;64074;47.540;19.072;2022-10-22T08:20:59;16.67;;;9.63;;
75496;SDS011;64074;47.540;19.072;2022-10-22T08:24:22;16.57;;;10.00;;
75496;SDS011;64074;47.540;19.072;2022-10-22T08:27:43;16.23;;;9.82;;
75496;SDS011;64074;47.540;19.072;2022-10-22T08:31:08;16.30;;;10.05;;
75496;SDS011;64074;47.540;19.072;2022-10-22T08:34:30;14.43;;;9.55;;
75496;SDS011;64074;47.540;19.072;2022-10-22T08:37:51;18.83;;;9.80;;
75496;SDS011;64074;47.540;19.072;2022-10-22T08:41:20;17.13;;;10.37;;
75496;SDS011;64074;47.540;19.072;2022-10-22T08:48:44;13.70;;;8.95;;
75496;SDS011;64074;47.540;19.072;2022-10-22T08:51:45;15.73;;;8.98;;
75496;SDS011;64074;47.540;19.072;2022-10-22T08:54:56;15.67;;;9.07;;
75496;SDS011;64074;47.540;19.072;2022-10-22T08:58:32;15.60;;;9.63;;
75496;SDS011;64074;47.540;19.072;2022-10-22T09:01:34;18.40;;;9.65;;
75496;SDS011;64074;47.540;19.072;2022-10-22T09:04:48;15.82;;;9.77;;
75496;SDS011;64074;47.540;19.072;2022-10-22T09:08:09;17.85;;;9.70;;
75496;SDS011;64074;47.540;19.072;2022-10-22T09:14:47;18.40;;;9.77;;
75496;SDS011;64074;47.540;19.072;2022-10-22T09:22:00;16.77;;;9.07;;
75496;SDS011;64074;47.540;19.072;2022-10-22T09:25:23;16.58;;;10.45;;
75496;SDS011;64074;47.540;19.072;2022-10-22T09:28:32;16.80;;;10.53;;
75496;SDS011;64074;47.540;19.072;2022-10-22T09:31:41;16.83;;;10.13;;
75496;SDS011;64074;47.540;19.072;2022-10-22T09:34:49;17.48;;;10.25;;
75496;SDS011;64074;47.540;19.072;2022-10-22T09:38:01;22.10;;;10.15;;
75496;SDS011;64074;47.540;19.072;2022-10-22T09:41:15;17.50;;;10.07;;
75496;SDS011;64074;47.540;19.072;2022-10-22T09:44:33;19.03;;;10.00;;
75496;SDS011;64074;47.540;19.072;2022-10-22T09:48:08;21.00;;;12.10;;
75496;SDS011;64074;47.540;19.072;2022-10-22T09:51:23;21.27;;;11.77;;
75496;SDS011;64074;47.540;19.072;2022-10-22T09:54:48;16.40;;;10.63;;
75496;SDS011;64074;47.540;19.072;2022-10-22T09:58:01;24.50;;;11.32;;
75496;SDS011;64074;47.540;19.072;2022-10-22T10:01:26;15.50;;;10.97;;
75496;SDS011;64074;47.540;19.072;2022-10-22T10:04:47;20.03;;;11.30;;
75496;SDS011;64074;47.540;19.072;2022-10-22T10:08:12;18.05;;;11.20;;
75496;SDS011;64074;47.540;19.072;2022-10-22T10:15:07;19.92;;;11.50;;
75496;SDS011;64074;47.540;19.072;2022-10-22T10:25:15;17.42;;;11.38;;
75496;SDS011;64074;47.540;19.072;2022-10-22T10:35:14;23.23;;;12.97;;
75496;SDS011;64074;47.540;19.072;2022-10-22T10:41:59;20.80;;;12.88;;
75496;SDS011;64074;47.540;19.072;2022-10-22T10:51:58;17.77;;;12.20;;
75496;SDS011;64074;47.540;19.072;2022-10-22T11:08:55;20.33;;;12.37;;
75496;SDS011;64074;47.540;19.072;2022-10-22T11:12:05;18.40;;;12.13;;
75496;SDS011;64074;47.540;19.072;2022-10-22T11:15:30;20.38;;;12.68;;
75496;SDS011;64074;47.540;19.072;2022-10-22T11:22:30;23.02;;;13.00;;
75496;SDS011;64074;47.540;19.072;2022-10-22T11:25:55;18.63;;;12.40;;
75496;SDS011;64074;47.540;19.072;2022-10-22T11:29:06;22.23;;;12.77;;
75496;SDS011;64074;47.540;19.072;2022-10-22T11:32:24;25.67;;;13.95;;
75496;SDS011;64074;47.540;19.072;2022-10-22T11:35:40;21.20;;;12.85;;
75496;SDS011;64074;47.540;19.072;2022-10-22T11:38:46;24.55;;;12.43;;
75496;SDS011;64074;47.540;19.072;2022-10-22T11:42:02;22.27;;;13.43;;
75496;SDS011;64074;47.540;19.072;2022-10-22T11:48:33;19.63;;;13.02;;
75496;SDS011;64074;47.540;19.072;2022-10-22T11:51:45;20.92;;;14.13;;
75496;SDS011;64074;47.540;19.072;2022-10-22T11:58:45;33.67;;;14.53;;
75496;SDS011;64074;47.540;19.072;2022-10-22T12:02:02;22.73;;;13.43;;
75496;SDS011;64074;47.540;19.072;2022-10-22T12:05:43;25.45;;;14.45;;
75496;SDS011;64074;47.540;19.072;2022-10-22T12:12:04;23.92;;;14.40;;
75496;SDS011;64074;47.540;19.072;2022-10-22T12:15:25;25.80;;;14.70;;
75496;SDS011;64074;47.540;19.072;2022-10-22T12:18:39;23.60;;;14.47;;
75496;SDS011;64074;47.540;19.072;2022-10-22T12:22:19;23.52;;;14.80;;
75496;SDS011;64074;47.540;19.072;2022-10-22T12:25:35;25.33;;;14.70;;
75496;SDS011;64074;47.540;19.072;2022-10-22T12:28:59;24.80;;;14.10;;
75496;SDS011;64074;47.540;19.072;2022-10-22T12:32:11;24.47;;;13.90;;
75496;SDS011;64074;47.540;19.072;2022-10-22T12:35:24;23.37;;;14.97;;
75496;SDS011;64074;47.540;19.072;2022-10-22T12:39:02;25.63;;;14.73;;
75496;SDS011;64074;47.540;19.072;2022-10-22T12:42:25;22.75;;;14.85;;
75496;SDS011;64074;47.540;19.072;2022-10-22T12:45:40;24.60;;;14.43;;
75496;SDS011;64074;47.540;19.072;2022-10-22T12:48:53;22.53;;;14.67;;
75496;SDS011;64074;47.540;19.072;2022-10-22T12:52:05;22.97;;;14.63;;
75496;SDS011;64074;47.540;19.072;2022-10-22T12:55:22;24.95;;;15.45;;
75496;SDS011;64074;47.540;19.072;2022-10-22T12:58:37;27.67;;;14.20;;
75496;SDS011;64074;47.540;19.072;2022-10-22T13:01:50;21.30;;;13.95;;
75496;SDS011;64074;47.540;19.072;2022-10-22T13:08:25;22.20;;;14.07;;
75496;SDS011;64074;47.540;19.072;2022-10-22T13:11:52;23.25;;;13.80;;
75496;SDS011;64074;47.540;19.072;2022-10-22T13:15:39;27.83;;;14.65;;
75496;SDS011;64074;47.540;19.072;2022-10-22T13:18:49;22.73;;;14.38;;
75496;SDS011;64074;47.540;19.072;2022-10-22T13:22:00;23.97;;;13.93;;
75496;SDS011;64074;47.540;19.072;2022-10-22T13:28:50;22.50;;;14.57;;
75496;SDS011;64074;47.540;19.072;2022-10-22T13:32:02;24.60;;;14.95;;
75496;SDS011;64074;47.540;19.072;2022-10-22T13:35:35;24.52;;;14.93;;
75496;SDS011;64074;47.540;19.072;2022-10-22T13:38:57;24.93;;;14.30;;
75496;SDS011;64074;47.540;19.072;2022-10-22T13:42:18;22.73;;;14.07;;
75496;SDS011;64074;47.540;19.072;2022-10-22T13:45:39;28.48;;;15.43;;
75496;SDS011;64074;47.540;19.072;2022-10-22T13:49:02;23.83;;;14.25;;
75496;SDS011;64074;47.540;19.072;2022-10-22T13:55:44;29.90;;;15.37;;
75496;SDS011;64074;47.540;19.072;2022-10-22T13:58:59;31.77;;;16.70;;
75496;SDS011;64074;47.540;19.072;2022-10-22T14:02:28;25.67;;;15.73;;
75496;SDS011;64074;47.540;19.072;2022-10-22T14:05:37;24.20;;;14.80;;
75496;SDS011;64074;47.540;19.072;2022-10-22T14:08:57;27.95;;;15.30;;
75496;SDS011;64074;47.540;19.072;2022-10-22T14:12:13;27.20;;;14.80;;
75496;SDS011;64074;47.540;19.072;2022-10-22T14:15:23;28.07;;;15.17;;
75496;SDS011;64074;47.540;19.072;2022-10-22T14:18:35;20.85;;;14.57;;
75496;SDS011;64074;47.540;19.072;2022-10-22T14:21:39;25.98;;;15.20;;
75496;SDS011;64074;47.540;19.072;2022-10-22T14:24:45;23.80;;;15.27;;
75496;SDS011;64074;47.540;19.072;2022-10-22T14:27:54;27.30;;;15.03;;
75496;SDS011;64074;47.540;19.072;2022-10-22T14:31:04;22.97;;;14.17;;
75496;SDS011;64074;47.540;19.072;2022-10-22T14:34:36;24.35;;;14.48;;
75496;SDS011;64074;47.540;19.072;2022-10-22T14:37:59;25.45;;;14.27;;
75496;SDS011;64074;47.540;19.072;2022-10-22T14:41:04;29.10;;;15.88;;
75496;SDS011;64074;47.540;19.072;2022-10-22T14:44:23;23.87;;;14.77;;
75496;SDS011;64074;47.540;19.072;2022-10-22T14:47:27;26.00;;;14.80;;
75496;SDS011;64074;47.540;19.072;2022-10-22T14:50:34;30.33;;;15.20;;
75496;SDS011;64074;47.540;19.072;2022-10-22T14:53:37;23.58;;;14.13;;
75496;SDS011;64074;47.540;19.072;2022-10-22T14:56:48;21.00;;;13.40;;
75496;SDS011;64074;47.540;19.072;2022-10-22T14:59:57;22.10;;;12.97;;
75496;SDS011;64074;47.540;19.072;2022-10-22T15:03:17;19.63;;;12.67;;
75496;SDS011;64074;47.540;19.072;2022-10-22T15:06:42;19.17;;;12.70;;
75496;SDS011;64074;47.540;19.072;2022-10-22T15:10:04;21.17;;;11.93;;
75496;SDS011;64074;47.540;19.072;2022-10-22T15:13:22;18.50;;;11.95;;
75496;SDS011;64074;47.540;19.072;2022-10-22T15:16:46;20.23;;;11.80;;
75496;SDS011;64074;47.540;19.072;2022-10-22T15:20:14;17.77;;;12.10;;
75496;SDS011;64074;47.540;19.072;2022-10-22T15:23:23;18.95;;;11.65;;
75496;SDS011;64074;47.540;19.072;2022-10-22T15:26:28;16.75;;;11.13;;
75496;SDS011;64074;47.540;19.072;2022-10-22T15:29:35;19.13;;;11.85;;
75496;SDS011;64074;47.540;19.072;2022-10-22T15:32:46;19.53;;;11.27;;
75496;SDS011;64074;47.540;19.072;2022-10-22T15:36:11;21.53;;;12.07;;
75496;SDS011;64074;47.540;19.072;2022-10-22T15:39:24;19.17;;;12.57;;
75496;SDS011;64074;47.540;19.072;2022-10-22T15:42:42;19.67;;;12.13;;
75496;SDS011;64074;47.540;19.072;2022-10-22T15:45:46;18.20;;;12.40;;
75496;SDS011;64074;47.540;19.072;2022-10-22T15:49:11;20.23;;;12.03;;
75496;SDS011;64074;47.540;19.072;2022-10-22T15:52:18;23.80;;;12.37;;
75496;SDS011;64074;47.540;19.072;2022-10-22T15:55:34;19.38;;;12.38;;
75496;SDS011;64074;47.540;19.072;2022-10-22T15:58:51;20.17;;;13.20;;
75496;SDS011;64074;47.540;19.072;2022-10-22T16:01:56;25.38;;;14.13;;
75496;SDS011;64074;47.540;19.072;2022-10-22T16:05:01;23.70;;;13.77;;
75496;SDS011;64074;47.540;19.072;2022-10-22T16:08:10;23.30;;;14.43;;
75496;SDS011;64074;47.540;19.072;2022-10-22T16:11:32;21.73;;;14.57;;
75496;SDS011;64074;47.540;19.072;2022-10-22T16:14:56;27.02;;;14.95;;
75496;SDS011;64074;47.540;19.072;2022-10-22T16:18:18;25.35;;;15.70;;
75496;SDS011;64074;47.540;19.072;2022-10-22T16:21:39;27.73;;;16.37;;
75496;SDS011;64074;47.540;19.072;2022-10-22T16:25:02;27.63;;;16.70;;
75496;SDS011;64074;47.540;19.072;2022-10-22T16:28:29;29.30;;;17.58;;
75496;SDS011;64074;47.540;19.072;2022-10-22T16:31:51;29.27;;;16.85;;
75496;SDS011;64074;47.540;19.072;2022-10-22T16:35:13;32.00;;;18.25;;
75496;SDS011;64074;47.540;19.072;2022-10-22T16:38:25;29.13;;;17.57;;
75496;SDS011;64074;47.540;19.072;2022-10-22T16:41:42;27.17;;;16.47;;
75496;SDS011;64074;47.540;19.072;2022-10-22T16:44:46;28.70;;;16.92;;
75496;SDS011;64074;47.540;19.072;2022-10-22T16:47:57;26.67;;;15.82;;
75496;SDS011;64074;47.540;19.072;2022-10-22T16:51:11;28.60;;;16.25;;
75496;SDS011;64074;47.540;19.072;2022-10-22T16:54:22;28.43;;;16.20;;
75496;SDS011;64074;47.540;19.072;2022-10-22T16:57:29;25.53;;;15.83;;
75496;SDS011;64074;47.540;19.072;2022-10-22T17:00:40;25.80;;;16.20;;
75496;SDS011;64074;47.540;19.072;2022-10-22T17:03:57;30.80;;;16.40;;
75496;SDS011;64074;47.540;19.072;2022-10-22T17:07:12;27.35;;;16.58;;
75496;SDS011;64074;47.540;19.072;2022-10-22T17:10:22;26.03;;;16.77;;
75496;SDS011;64074;47.540;19.072;2022-10-22T17:13:57;28.53;;;17.30;;
75496;SDS011;64074;47.540;19.072;2022-10-22T17:17:19;30.20;;;17.83;;
75496;SDS011;64074;47.540;19.072;2022-10-22T17:20:41;32.20;;;18.00;;
75496;SDS011;64074;47.540;19.072;2022-10-22T17:24:09;28.75;;;18.02;;
75496;SDS011;64074;47.540;19.072;2022-10-22T17:27:24;30.20;;;18.20;;
75496;SDS011;64074;47.540;19.072;2022-10-22T17:30:34;31.43;;;18.03;;
75496;SDS011;64074;47.540;19.072;2022-10-22T17:34:15;32.67;;;19.98;;
75496;SDS011;64074;47.540;19.072;2022-10-22T17:37:33;30.85;;;18.95;;
75496;SDS011;64074;47.540;19.072;2022-10-22T17:40:49;30.50;;;18.48;;
75496;SDS011;64074;47.540;19.072;2022-10-22T17:44:17;34.50;;;20.40;;
75496;SDS011;64074;47.540;19.072;2022-10-22T17:47:46;30.27;;;19.50;;
75496;SDS011;64074;47.540;19.072;2022-10-22T17:51:09;33.83;;;19.40;;
75496;SDS011;64074;47.540;19.072;2022-10-22T17:54:23;31.92;;;20.45;;
75496;SDS011;64074;47.540;19.072;2022-10-22T17:57:38;31.58;;;18.88;;
75496;SDS011;64074;47.540;19.072;2022-10-22T18:00:45;32.33;;;19.50;;
75496;SDS011;64074;47.540;19.072;2022-10-22T18:04:03;30.57;;;18.40;;
75496;SDS011;64074;47.540;19.072;2022-10-22T18:07:52;30.52;;;19.92;;
75496;SDS011;64074;47.540;19.072;2022-10-22T18:11:21;35.03;;;19.75;;
75496;SDS011;64074;47.540;19.072;2022-10-22T18:14:37;35.20;;;19.48;;
75496;SDS011;64074;47.540;19.072;2022-10-22T18:17:58;33.27;;;20.30;;
75496;SDS011;64074;47.540;19.072;2022-10-22T18:21:19;31.33;;;20.30;;
75496;SDS011;64074;47.540;19.072;2022-10-22T18:24:28;32.65;;;20.92;;
75496;SDS011;64074;47.540;19.072;2022-10-22T18:27:33;27.20;;;17.85;;
75496;SDS011;64074;47.540;19.072;2022-10-22T18:30:43;31.20;;;20.10;;
75496;SDS011;64074;47.540;19.072;2022-10-22T18:34:05;30.70;;;18.57;;
75496;SDS011;64074;47.540;19.072;2022-10-22T18:37:18;30.90;;;17.63;;
75496;SDS011;64074;47.540;19.072;2022-10-22T18:40:48;29.33;;;17.60;;
75496;SDS011;64074;47.540;19.072;2022-10-22T18:44:15;30.35;;;18.17;;
75496;SDS011;64074;47.540;19.072;2022-10-22T18:47:33;32.60;;;18.90;;
75496;SDS011;64074;47.540;19.072;2022-10-22T18:51:05;28.27;;;18.17;;
75496;SDS011;64074;47.540;19.072;2022-10-22T18:54:21;28.67;;;18.27;;
75496;SDS011;64074;47.540;19.072;2022-10-22T18:57:33;28.35;;;19.35;;
75496;SDS011;64074;47.540;19.072;2022-10-22T19:00:50;33.72;;;19.55;;
75496;SDS011;64074;47.540;19.072;2022-10-22T19:04:30;32.03;;;19.50;;
75496;SDS011;64074;47.540;19.072;2022-10-22T19:07:42;32.80;;;19.93;;
75496;SDS011;64074;47.540;19.072;2022-10-22T19:10:49;31.03;;;19.23;;
75496;SDS011;64074;47.540;19.072;2022-10-22T19:13:54;29.90;;;19.40;;
75496;SDS011;64074;47.540;19.072;2022-10-22T19:17:07;33.78;;;21.15;;
75496;SDS011;64074;47.540;19.072;2022-10-22T19:20:30;33.05;;;20.10;;
75496;SDS011;64074;47.540;19.072;2022-10-22T19:23:48;33.40;;;20.53;;
75496;SDS011;64074;47.540;19.072;2022-10-22T19:27:32;34.33;;;20.47;;
75496;SDS011;64074;47.540;19.072;2022-10-22T19:30:48;32.92;;;20.05;;
75496;SDS011;64074;47.540;19.072;2022-10-22T19:33:52;35.38;;;20.48;;
75496;SDS011;64074;47.540;19.072;2022-10-22T19:37:03;33.78;;;21.88;;
75496;SDS011;64074;47.540;19.072;2022-10-22T19:40:07;32.20;;;21.10;;
75496;SDS011;64074;47.540;19.072;2022-10-22T19:43:10;32.83;;;20.90;;
75496;SDS011;64074;47.540;19.072;2022-10-22T19:46:20;31.20;;;20.23;;
75496;SDS011;64074;47.540;19.072;2022-10-22T19:49:33;35.22;;;22.95;;
75496;SDS011;64074;47.540;19.072;2022-10-22T19:52:55;33.92;;;21.50;;
75496;SDS011;64074;47.540;19.072;2022-10-22T19:56:33;35.17;;;22.53;;
75496;SDS011;64074;47.540;19.072;2022-10-22T20:00:05;35.27;;;20.93;;
75496;SDS011;64074;47.540;19.072;2022-10-22T20:03:18;35.78;;;22.00;;
75496;SDS011;64074;47.540;19.072;2022-10-22T20:06:52;33.78;;;21.88;;
75496;SDS011;64074;47.540;19.072;2022-10-22T20:10:13;37.28;;;22.52;;
75496;SDS011;64074;47.540;19.072;2022-10-22T20:13:39;35.90;;;22.27;;
75496;SDS011;64074;47.540;19.072;2022-10-22T20:16:59;36.97;;;21.17;;
75496;SDS011;64074;47.540;19.072;2022-10-22T20:20:18;37.35;;;22.05;;
75496;SDS011;64074;47.540;19.072;2022-10-22T20:23:36;37.42;;;22.95;;
75496;SDS011;64074;47.540;19.072;2022-10-22T20:27:04;39.22;;;22.48;;
75496;SDS011;64074;47.540;19.072;2022-10-22T20:30:13;36.23;;;22.60;;
75496;SDS011;64074;47.540;19.072;2022-10-22T20:33:45;34.70;;;22.60;;
75496;SDS011;64074;47.540;19.072;2022-10-22T20:36:59;38.55;;;22.08;;
75496;SDS011;64074;47.540;19.072;2022-10-22T20:40:29;37.85;;;22.35;;
75496;SDS011;64074;47.540;19.072;2022-10-22T20:43:50;36.53;;;21.42;;
75496;SDS011;64074;47.540;19.072;2022-10-22T20:47:14;37.40;;;22.40;;